sensor_id;sensor_type;location;lat;lon;timestamp;P1;durP1;ratioP1;P2;durP2;ratioP2
37069;SDS011;22984;48.862;9.320;2023-02-01T00:01:54;3.15;;;2.63;;
37069;SDS011;22984;48.862;9.320;2023-02-01T00:04:21;3.15;;;2.78;;
37069;SDS011;22984;48.862;9.320;2023-02-01T00:06:47;2.78;;;2.47;;
37069;SDS011;22984;48.862;9.320;2023-02-01T00:09:13;3.10;;;2.80;;
37069;SDS011;22984;48.862;9.320;2023-02-01T00:11:39;3.03;;;2.72;;
37069;SDS011;22984;48.862;9.320;2023-02-01T00:14:05;4.05;;;2.70;;
37069;SDS011;22984;48.862;9.320;2023-02-01T00:16:33;3.00;;;2.80;;
37069;SDS011;22984;48.862;9.320;2023-02-01T00:19:20;3.10;;;2.70;;
37069;SDS011;22984;48.862;9.320;2023-02-01T00:21:45;2.78;;;2.58;;
37069;SDS011;22984;48.862;9.320;2023-02-01T00:24:11;3.60;;;2.80;;
37069;SDS011;22984;48.862;9.320;2023-02-01T00:26:38;3.20;;;2.63;;
37069;SDS011;22984;48.862;9.320;2023-02-01T00:29:06;2.95;;;2.75;;
37069;SDS011;22984;48.862;9.320;2023-02-01T00:31:33;3.35;;;3.05;;
37069;SDS011;22984;48.862;9.320;2023-02-01T00:33:59;4.30;;;3.08;;
37069;SDS011;22984;48.862;9.320;2023-02-01T00:36:25;5.25;;;3.47;;
37069;SDS011;22984;48.862;9.320;2023-02-01T00:38:52;3.20;;;2.80;;
37069;SDS011;22984;48.862;9.320;2023-02-01T00:41:19;2.65;;;2.45;;
37069;SDS011;22984;48.862;9.320;2023-02-01T00:43:46;2.97;;;2.78;;
37069;SDS011;22984;48.862;9.320;2023-02-01T00:46:12;2.58;;;2.38;;
37069;SDS011;22984;48.862;9.320;2023-02-01T00:48:38;2.55;;;2.35;;
37069;SDS011;22984;48.862;9.320;2023-02-01T00:51:05;3.00;;;2.53;;
37069;SDS011;22984;48.862;9.320;2023-02-01T00:53:32;2.83;;;2.63;;
37069;SDS011;22984;48.862;9.320;2023-02-01T00:55:58;2.22;;;2.03;;
37069;SDS011;22984;48.862;9.320;2023-02-01T00:58:24;3.77;;;2.50;;
37069;SDS011;22984;48.862;9.320;2023-02-01T01:01:07;2.45;;;2.15;;
37069;SDS011;22984;48.862;9.320;2023-02-01T01:03:35;2.53;;;2.30;;
37069;SDS011;22984;48.862;9.320;2023-02-01T02:43:31;1.00;;;0.80;;
37069;SDS011;22984;48.862;9.320;2023-02-01T02:46:21;1.07;;;0.97;;
37069;SDS011;22984;48.862;9.320;2023-02-01T02:51:50;1.80;;;1.40;;
37069;SDS011;22984;48.862;9.320;2023-02-01T02:54:37;1.60;;;1.15;;
37069;SDS011;22984;48.862;9.320;2023-02-01T02:57:13;1.27;;;1.17;;
37069;SDS011;22984;48.862;9.320;2023-02-01T03:00:00;1.67;;;1.33;;
37069;SDS011;22984;48.862;9.320;2023-02-01T03:02:46;1.33;;;1.20;;
37069;SDS011;22984;48.862;9.320;2023-02-01T03:05:32;1.35;;;1.25;;
37069;SDS011;22984;48.862;9.320;2023-02-01T03:08:03;1.15;;;1.05;;
37069;SDS011;22984;48.862;9.320;2023-02-01T03:13:02;1.30;;;1.20;;
37069;SDS011;22984;48.862;9.320;2023-02-01T03:15:35;1.27;;;1.17;;
37069;SDS011;22984;48.862;9.320;2023-02-01T03:18:02;2.97;;;1.42;;
37069;SDS011;22984;48.862;9.320;2023-02-01T03:20:30;1.50;;;1.40;;
37069;SDS011;22984;48.862;9.320;2023-02-01T03:22:57;1.50;;;1.35;;
37069;SDS011;22984;48.862;9.320;2023-02-01T03:25:25;1.55;;;1.38;;
37069;SDS011;22984;48.862;9.320;2023-02-01T03:28:11;1.42;;;1.33;;
37069;SDS011;22984;48.862;9.320;2023-02-01T03:30:38;1.50;;;1.20;;
37069;SDS011;22984;48.862;9.320;2023-02-01T03:33:08;1.60;;;1.50;;
37069;SDS011;22984;48.862;9.320;2023-02-01T03:38:23;1.95;;;1.40;;
37069;SDS011;22984;48.862;9.320;2023-02-01T03:43:49;2.10;;;1.90;;
37069;SDS011;22984;48.862;9.320;2023-02-01T03:46:17;1.55;;;1.45;;
37069;SDS011;22984;48.862;9.320;2023-02-01T03:48:44;2.80;;;1.70;;
37069;SDS011;22984;48.862;9.320;2023-02-01T03:51:10;1.90;;;1.80;;
37069;SDS011;22984;48.862;9.320;2023-02-01T03:53:37;2.88;;;1.75;;
37069;SDS011;22984;48.862;9.320;2023-02-01T03:56:04;3.65;;;1.42;;
37069;SDS011;22984;48.862;9.320;2023-02-01T03:58:31;1.85;;;1.30;;
37069;SDS011;22984;48.862;9.320;2023-02-01T04:00:57;1.55;;;1.45;;
37069;SDS011;22984;48.862;9.320;2023-02-01T04:03:24;2.97;;;1.20;;
37069;SDS011;22984;48.862;9.320;2023-02-01T04:05:51;1.73;;;1.63;;
37069;SDS011;22984;48.862;9.320;2023-02-01T04:08:20;1.60;;;1.08;;
37069;SDS011;22984;48.862;9.320;2023-02-01T04:10:47;2.10;;;0.90;;
37069;SDS011;22984;48.862;9.320;2023-02-01T04:13:13;1.40;;;1.20;;
37069;SDS011;22984;48.862;9.320;2023-02-01T04:15:39;1.20;;;1.10;;
37069;SDS011;22984;48.862;9.320;2023-02-01T04:18:05;1.33;;;1.02;;
37069;SDS011;22984;48.862;9.320;2023-02-01T04:20:31;1.05;;;0.95;;
37069;SDS011;22984;48.862;9.320;2023-02-01T04:22:57;1.05;;;0.82;;
37069;SDS011;22984;48.862;9.320;2023-02-01T04:25:23;1.10;;;1.00;;
37069;SDS011;22984;48.862;9.320;2023-02-01T04:27:49;0.80;;;0.80;;
37069;SDS011;22984;48.862;9.320;2023-02-01T04:30:16;0.95;;;0.95;;
37069;SDS011;22984;48.862;9.320;2023-02-01T04:32:42;0.98;;;0.90;;
37069;SDS011;22984;48.862;9.320;2023-02-01T04:35:08;1.27;;;1.10;;
37069;SDS011;22984;48.862;9.320;2023-02-01T04:37:34;2.85;;;1.90;;
37069;SDS011;22984;48.862;9.320;2023-02-01T04:40:00;2.25;;;1.55;;
37069;SDS011;22984;48.862;9.320;2023-02-01T04:42:28;1.48;;;1.38;;
37069;SDS011;22984;48.862;9.320;2023-02-01T04:44:54;1.20;;;1.00;;
37069;SDS011;22984;48.862;9.320;2023-02-01T04:47:20;2.03;;;1.55;;
37069;SDS011;22984;48.862;9.320;2023-02-01T04:49:46;1.52;;;1.42;;
37069;SDS011;22984;48.862;9.320;2023-02-01T04:52:12;1.83;;;1.45;;
37069;SDS011;22984;48.862;9.320;2023-02-01T04:54:38;2.38;;;1.60;;
37069;SDS011;22984;48.862;9.320;2023-02-01T04:57:04;2.40;;;1.53;;
37069;SDS011;22984;48.862;9.320;2023-02-01T04:59:30;1.80;;;1.67;;
37069;SDS011;22984;48.862;9.320;2023-02-01T05:01:56;1.80;;;1.70;;
37069;SDS011;22984;48.862;9.320;2023-02-01T05:04:22;2.42;;;1.70;;
37069;SDS011;22984;48.862;9.320;2023-02-01T05:06:48;1.70;;;1.60;;
37069;SDS011;22984;48.862;9.320;2023-02-01T05:09:14;1.90;;;1.80;;
37069;SDS011;22984;48.862;9.320;2023-02-01T05:11:40;3.20;;;2.30;;
37069;SDS011;22984;48.862;9.320;2023-02-01T05:14:25;2.03;;;1.80;;
37069;SDS011;22984;48.862;9.320;2023-02-01T05:16:51;2.83;;;1.88;;
37069;SDS011;22984;48.862;9.320;2023-02-01T05:19:17;1.77;;;1.67;;
37069;SDS011;22984;48.862;9.320;2023-02-01T05:21:43;1.90;;;1.80;;
37069;SDS011;22984;48.862;9.320;2023-02-01T05:24:09;2.20;;;1.50;;
37069;SDS011;22984;48.862;9.320;2023-02-01T05:26:37;1.50;;;1.40;;
37069;SDS011;22984;48.862;9.320;2023-02-01T05:29:04;1.50;;;1.23;;
37069;SDS011;22984;48.862;9.320;2023-02-01T05:31:30;1.55;;;1.45;;
37069;SDS011;22984;48.862;9.320;2023-02-01T05:33:56;1.35;;;1.25;;
37069;SDS011;22984;48.862;9.320;2023-02-01T05:36:22;1.75;;;1.48;;
37069;SDS011;22984;48.862;9.320;2023-02-01T05:38:48;1.50;;;1.40;;
37069;SDS011;22984;48.862;9.320;2023-02-01T05:41:14;2.05;;;1.85;;
37069;SDS011;22984;48.862;9.320;2023-02-01T05:43:40;1.50;;;1.40;;
37069;SDS011;22984;48.862;9.320;2023-02-01T05:46:06;2.45;;;1.35;;
37069;SDS011;22984;48.862;9.320;2023-02-01T05:48:35;1.70;;;1.52;;
37069;SDS011;22984;48.862;9.320;2023-02-01T05:51:01;1.40;;;1.20;;
37069;SDS011;22984;48.862;9.320;2023-02-01T05:53:27;2.08;;;1.20;;
37069;SDS011;22984;48.862;9.320;2023-02-01T05:55:53;1.38;;;1.27;;
37069;SDS011;22984;48.862;9.320;2023-02-01T05:58:19;1.90;;;1.30;;
37069;SDS011;22984;48.862;9.320;2023-02-01T06:00:45;2.50;;;1.45;;
37069;SDS011;22984;48.862;9.320;2023-02-01T06:03:11;2.07;;;1.30;;
37069;SDS011;22984;48.862;9.320;2023-02-01T06:05:37;2.15;;;1.25;;
37069;SDS011;22984;48.862;9.320;2023-02-01T06:08:03;2.60;;;1.40;;
37069;SDS011;22984;48.862;9.320;2023-02-01T06:10:29;1.30;;;1.20;;
37069;SDS011;22984;48.862;9.320;2023-02-01T06:12:55;2.33;;;1.25;;
37069;SDS011;22984;48.862;9.320;2023-02-01T06:15:21;2.20;;;0.90;;
37069;SDS011;22984;48.862;9.320;2023-02-01T06:17:47;1.42;;;0.90;;
37069;SDS011;22984;48.862;9.320;2023-02-01T06:20:14;2.13;;;1.23;;
37069;SDS011;22984;48.862;9.320;2023-02-01T06:22:40;1.48;;;1.25;;
37069;SDS011;22984;48.862;9.320;2023-02-01T06:25:08;1.40;;;1.00;;
37069;SDS011;22984;48.862;9.320;2023-02-01T06:27:34;1.30;;;1.20;;
37069;SDS011;22984;48.862;9.320;2023-02-01T06:30:01;2.95;;;1.60;;
37069;SDS011;22984;48.862;9.320;2023-02-01T06:32:27;1.70;;;1.60;;
37069;SDS011;22984;48.862;9.320;2023-02-01T06:34:53;1.33;;;1.23;;
37069;SDS011;22984;48.862;9.320;2023-02-01T06:37:20;1.52;;;1.42;;
37069;SDS011;22984;48.862;9.320;2023-02-01T06:39:48;2.65;;;1.80;;
37069;SDS011;22984;48.862;9.320;2023-02-01T06:42:14;1.70;;;1.60;;
37069;SDS011;22984;48.862;9.320;2023-02-01T06:44:40;3.55;;;1.45;;
37069;SDS011;22984;48.862;9.320;2023-02-01T06:47:06;1.67;;;1.50;;
37069;SDS011;22984;48.862;9.320;2023-02-01T06:49:32;1.80;;;1.52;;
37069;SDS011;22984;48.862;9.320;2023-02-01T06:51:58;2.50;;;1.90;;
37069;SDS011;22984;48.862;9.320;2023-02-01T06:54:27;2.58;;;1.95;;
37069;SDS011;22984;48.862;9.320;2023-02-01T06:56:53;2.58;;;1.63;;
37069;SDS011;22984;48.862;9.320;2023-02-01T06:59:19;1.50;;;1.40;;
37069;SDS011;22984;48.862;9.320;2023-02-01T07:01:45;2.35;;;1.50;;
37069;SDS011;22984;48.862;9.320;2023-02-01T07:04:11;2.30;;;1.10;;
37069;SDS011;22984;48.862;9.320;2023-02-01T07:06:38;1.55;;;1.35;;
37069;SDS011;22984;48.862;9.320;2023-02-01T07:09:04;3.23;;;1.40;;
37069;SDS011;22984;48.862;9.320;2023-02-01T07:11:30;2.17;;;1.73;;
37069;SDS011;22984;48.862;9.320;2023-02-01T07:13:57;5.07;;;1.65;;
37069;SDS011;22984;48.862;9.320;2023-02-01T07:16:23;2.88;;;1.55;;
37069;SDS011;22984;48.862;9.320;2023-02-01T07:18:49;4.30;;;1.73;;
37069;SDS011;22984;48.862;9.320;2023-02-01T07:21:16;5.47;;;2.33;;
37069;SDS011;22984;48.862;9.320;2023-02-01T07:23:42;3.08;;;1.92;;
37069;SDS011;22984;48.862;9.320;2023-02-01T07:26:09;5.45;;;2.05;;
37069;SDS011;22984;48.862;9.320;2023-02-01T07:28:37;4.38;;;2.30;;
37069;SDS011;22984;48.862;9.320;2023-02-01T07:33:29;4.95;;;2.13;;
37069;SDS011;22984;48.862;9.320;2023-02-01T07:35:55;5.50;;;2.00;;
37069;SDS011;22984;48.862;9.320;2023-02-01T07:38:21;6.30;;;2.10;;
37069;SDS011;22984;48.862;9.320;2023-02-01T07:40:48;8.95;;;3.22;;
37069;SDS011;22984;48.862;9.320;2023-02-01T07:43:14;7.40;;;2.72;;
37069;SDS011;22984;48.862;9.320;2023-02-01T07:45:40;7.15;;;2.60;;
37069;SDS011;22984;48.862;9.320;2023-02-01T07:48:06;7.20;;;2.60;;
37069;SDS011;22984;48.862;9.320;2023-02-01T07:50:33;13.07;;;3.10;;
37069;SDS011;22984;48.862;9.320;2023-02-01T07:52:59;7.07;;;2.60;;
37069;SDS011;22984;48.862;9.320;2023-02-01T07:55:25;9.73;;;2.95;;
37069;SDS011;22984;48.862;9.320;2023-02-01T07:57:51;7.75;;;3.05;;
37069;SDS011;22984;48.862;9.320;2023-02-01T08:00:18;9.75;;;3.05;;
37069;SDS011;22984;48.862;9.320;2023-02-01T08:03:04;12.63;;;3.33;;
37069;SDS011;22984;48.862;9.320;2023-02-01T08:05:30;7.78;;;2.90;;
37069;SDS011;22984;48.862;9.320;2023-02-01T08:07:56;10.45;;;3.58;;
37069;SDS011;22984;48.862;9.320;2023-02-01T08:10:22;9.35;;;2.63;;
37069;SDS011;22984;48.862;9.320;2023-02-01T08:12:48;8.23;;;3.35;;
37069;SDS011;22984;48.862;9.320;2023-02-01T08:15:17;6.93;;;2.78;;
37069;SDS011;22984;48.862;9.320;2023-02-01T08:17:49;6.27;;;2.90;;
37069;SDS011;22984;48.862;9.320;2023-02-01T08:20:16;6.88;;;2.78;;
37069;SDS011;22984;48.862;9.320;2023-02-01T08:22:42;8.63;;;2.88;;
37069;SDS011;22984;48.862;9.320;2023-02-01T08:25:08;12.35;;;2.90;;
37069;SDS011;22984;48.862;9.320;2023-02-01T08:27:35;10.55;;;3.30;;
37069;SDS011;22984;48.862;9.320;2023-02-01T08:30:01;8.77;;;3.13;;
37069;SDS011;22984;48.862;9.320;2023-02-01T08:32:27;9.25;;;3.20;;
37069;SDS011;22984;48.862;9.320;2023-02-01T08:34:53;7.97;;;2.95;;
37069;SDS011;22984;48.862;9.320;2023-02-01T08:37:19;9.50;;;2.97;;
37069;SDS011;22984;48.862;9.320;2023-02-01T08:39:45;8.25;;;2.20;;
37069;SDS011;22984;48.862;9.320;2023-02-01T08:42:12;6.93;;;2.67;;
37069;SDS011;22984;48.862;9.320;2023-02-01T08:44:56;9.20;;;2.38;;
37069;SDS011;22984;48.862;9.320;2023-02-01T08:47:23;8.55;;;2.58;;
37069;SDS011;22984;48.862;9.320;2023-02-01T08:49:49;9.45;;;3.20;;
37069;SDS011;22984;48.862;9.320;2023-02-01T08:52:16;12.85;;;2.33;;
37069;SDS011;22984;48.862;9.320;2023-02-01T08:54:42;9.65;;;2.72;;
37069;SDS011;22984;48.862;9.320;2023-02-01T08:57:08;7.97;;;2.60;;
37069;SDS011;22984;48.862;9.320;2023-02-01T08:59:35;14.05;;;3.20;;
37069;SDS011;22984;48.862;9.320;2023-02-01T09:02:01;10.13;;;2.60;;
37069;SDS011;22984;48.862;9.320;2023-02-01T09:04:27;7.63;;;2.60;;
37069;SDS011;22984;48.862;9.320;2023-02-01T09:06:53;12.18;;;3.08;;
37069;SDS011;22984;48.862;9.320;2023-02-01T09:09:20;8.57;;;2.33;;
37069;SDS011;22984;48.862;9.320;2023-02-01T09:11:47;12.18;;;2.85;;
37069;SDS011;22984;48.862;9.320;2023-02-01T09:14:15;11.57;;;2.72;;
37069;SDS011;22984;48.862;9.320;2023-02-01T09:16:41;10.75;;;2.60;;
37069;SDS011;22984;48.862;9.320;2023-02-01T09:19:07;9.95;;;2.55;;
37069;SDS011;22984;48.862;9.320;2023-02-01T09:21:33;6.95;;;2.35;;
37069;SDS011;22984;48.862;9.320;2023-02-01T09:23:59;10.18;;;2.58;;
37069;SDS011;22984;48.862;9.320;2023-02-01T09:26:25;10.13;;;3.05;;
37069;SDS011;22984;48.862;9.320;2023-02-01T09:28:51;9.23;;;3.17;;
37069;SDS011;22984;48.862;9.320;2023-02-01T09:31:17;11.70;;;3.38;;
37069;SDS011;22984;48.862;9.320;2023-02-01T09:33:43;13.65;;;2.90;;
37069;SDS011;22984;48.862;9.320;2023-02-01T09:36:09;14.07;;;3.40;;
37069;SDS011;22984;48.862;9.320;2023-02-01T09:38:35;10.10;;;2.70;;
37069;SDS011;22984;48.862;9.320;2023-02-01T09:41:06;9.05;;;3.00;;
37069;SDS011;22984;48.862;9.320;2023-02-01T09:43:38;7.75;;;2.72;;
37069;SDS011;22984;48.862;9.320;2023-02-01T09:46:40;11.95;;;2.83;;
37069;SDS011;22984;48.862;9.320;2023-02-01T09:49:11;11.95;;;2.72;;
37069;SDS011;22984;48.862;9.320;2023-02-01T09:51:40;10.73;;;2.63;;
37069;SDS011;22984;48.862;9.320;2023-02-01T09:54:13;9.07;;;2.80;;
37069;SDS011;22984;48.862;9.320;2023-02-01T10:01:48;13.93;;;2.85;;
37069;SDS011;22984;48.862;9.320;2023-02-01T10:04:15;18.70;;;4.22;;
37069;SDS011;22984;48.862;9.320;2023-02-01T10:11:52;12.67;;;3.30;;
37069;SDS011;22984;48.862;9.320;2023-02-01T10:19:33;15.80;;;3.30;;
37069;SDS011;22984;48.862;9.320;2023-02-01T10:27:02;13.60;;;3.50;;
37069;SDS011;22984;48.862;9.320;2023-02-01T10:29:34;15.82;;;2.85;;
37069;SDS011;22984;48.862;9.320;2023-02-01T10:32:02;14.20;;;2.92;;
37069;SDS011;22984;48.862;9.320;2023-02-01T10:34:30;12.10;;;2.28;;
37069;SDS011;22984;48.862;9.320;2023-02-01T10:36:59;11.27;;;3.05;;
37069;SDS011;22984;48.862;9.320;2023-02-01T10:39:26;21.02;;;4.32;;
37069;SDS011;22984;48.862;9.320;2023-02-01T10:41:52;18.08;;;3.90;;
37069;SDS011;22984;48.862;9.320;2023-02-01T10:44:22;12.85;;;2.78;;
37069;SDS011;22984;48.862;9.320;2023-02-01T10:46:50;14.45;;;2.92;;
37069;SDS011;22984;48.862;9.320;2023-02-01T10:52:10;10.15;;;2.63;;
37069;SDS011;22984;48.862;9.320;2023-02-01T10:54:38;16.90;;;3.33;;
37069;SDS011;22984;48.862;9.320;2023-02-01T10:57:08;20.70;;;4.60;;
37069;SDS011;22984;48.862;9.320;2023-02-01T10:59:34;20.42;;;4.10;;
37069;SDS011;22984;48.862;9.320;2023-02-01T11:02:46;11.70;;;3.70;;
37069;SDS011;22984;48.862;9.320;2023-02-01T11:04:47;11.40;;;3.00;;
37069;SDS011;22984;48.862;9.320;2023-02-01T11:07:17;22.33;;;3.00;;
37069;SDS011;22984;48.862;9.320;2023-02-01T11:09:49;12.35;;;2.92;;
37069;SDS011;22984;48.862;9.320;2023-02-01T11:12:49;15.20;;;2.50;;
37069;SDS011;22984;48.862;9.320;2023-02-01T11:17:35;12.38;;;2.40;;
37069;SDS011;22984;48.862;9.320;2023-02-01T11:20:04;14.82;;;2.40;;
37069;SDS011;22984;48.862;9.320;2023-02-01T11:22:31;12.48;;;2.75;;
37069;SDS011;22984;48.862;9.320;2023-02-01T11:24:58;15.13;;;3.50;;
37069;SDS011;22984;48.862;9.320;2023-02-01T11:27:25;14.40;;;3.35;;
37069;SDS011;22984;48.862;9.320;2023-02-01T11:29:52;15.93;;;3.13;;
37069;SDS011;22984;48.862;9.320;2023-02-01T11:32:20;12.87;;;3.40;;
37069;SDS011;22984;48.862;9.320;2023-02-01T11:34:49;12.00;;;2.80;;
37069;SDS011;22984;48.862;9.320;2023-02-01T11:37:59;18.33;;;3.00;;
37069;SDS011;22984;48.862;9.320;2023-02-01T11:42:52;14.38;;;3.05;;
37069;SDS011;22984;48.862;9.320;2023-02-01T11:45:20;14.75;;;3.50;;
37069;SDS011;22984;48.862;9.320;2023-02-01T11:47:46;14.33;;;3.17;;
37069;SDS011;22984;48.862;9.320;2023-02-01T11:50:19;8.90;;;2.83;;
37069;SDS011;22984;48.862;9.320;2023-02-01T11:58:40;13.32;;;2.72;;
37069;SDS011;22984;48.862;9.320;2023-02-01T12:17:06;16.27;;;3.00;;
37069;SDS011;22984;48.862;9.320;2023-02-01T12:31:00;14.73;;;3.60;;
37069;SDS011;22984;48.862;9.320;2023-02-01T12:41:32;22.77;;;3.22;;
37069;SDS011;22984;48.862;9.320;2023-02-01T12:44:08;14.30;;;2.40;;
37069;SDS011;22984;48.862;9.320;2023-02-01T12:46:41;13.63;;;3.10;;
37069;SDS011;22984;48.862;9.320;2023-02-01T12:51:40;13.23;;;3.10;;
37069;SDS011;22984;48.862;9.320;2023-02-01T12:57:05;11.73;;;3.03;;
37069;SDS011;22984;48.862;9.320;2023-02-01T12:59:36;14.02;;;3.10;;
37069;SDS011;22984;48.862;9.320;2023-02-01T13:02:15;11.95;;;3.83;;
37069;SDS011;22984;48.862;9.320;2023-02-01T13:07:18;8.05;;;3.53;;
37069;SDS011;22984;48.862;9.320;2023-02-01T13:09:49;10.13;;;2.63;;
37069;SDS011;22984;48.862;9.320;2023-02-01T13:12:19;11.43;;;2.80;;
37069;SDS011;22984;48.862;9.320;2023-02-01T13:15:28;13.77;;;2.73;;
37069;SDS011;22984;48.862;9.320;2023-02-01T13:17:34;9.80;;;2.33;;
37069;SDS011;22984;48.862;9.320;2023-02-01T13:22:47;15.65;;;2.70;;
37069;SDS011;22984;48.862;9.320;2023-02-01T13:25:22;9.52;;;2.10;;
37069;SDS011;22984;48.862;9.320;2023-02-01T13:27:50;12.48;;;2.40;;
37069;SDS011;22984;48.862;9.320;2023-02-01T13:30:20;11.27;;;3.25;;
37069;SDS011;22984;48.862;9.320;2023-02-01T13:32:55;11.27;;;2.80;;
37069;SDS011;22984;48.862;9.320;2023-02-01T13:56:01;12.88;;;2.78;;
37069;SDS011;22984;48.862;9.320;2023-02-01T13:58:35;16.58;;;3.20;;
37069;SDS011;22984;48.862;9.320;2023-02-01T14:06:16;13.77;;;2.85;;
37069;SDS011;22984;48.862;9.320;2023-02-01T14:08:43;13.02;;;3.17;;
37069;SDS011;22984;48.862;9.320;2023-02-01T14:11:32;12.85;;;2.85;;
37069;SDS011;22984;48.862;9.320;2023-02-01T14:13:56;13.13;;;2.13;;
37069;SDS011;22984;48.862;9.320;2023-02-01T14:16:32;10.93;;;2.58;;
37069;SDS011;22984;48.862;9.320;2023-02-01T14:18:59;8.63;;;1.98;;
37069;SDS011;22984;48.862;9.320;2023-02-01T14:21:33;11.70;;;2.15;;
37069;SDS011;22984;48.862;9.320;2023-02-01T14:24:43;9.63;;;1.90;;
37069;SDS011;22984;48.862;9.320;2023-02-01T14:26:50;9.52;;;2.55;;
37069;SDS011;22984;48.862;9.320;2023-02-01T14:29:22;14.40;;;2.60;;
37069;SDS011;22984;48.862;9.320;2023-02-01T14:39:56;20.70;;;6.30;;
37069;SDS011;22984;48.862;9.320;2023-02-01T14:44:55;15.25;;;3.00;;
37069;SDS011;22984;48.862;9.320;2023-02-01T14:49:55;9.75;;;3.00;;
37069;SDS011;22984;48.862;9.320;2023-02-01T14:52:23;11.40;;;2.38;;
37069;SDS011;22984;48.862;9.320;2023-02-01T14:54:55;10.55;;;2.63;;
37069;SDS011;22984;48.862;9.320;2023-02-01T14:57:23;15.57;;;3.20;;
37069;SDS011;22984;48.862;9.320;2023-02-01T14:59:52;12.88;;;2.75;;
37069;SDS011;22984;48.862;9.320;2023-02-01T15:02:23;12.25;;;2.63;;
37069;SDS011;22984;48.862;9.320;2023-02-01T15:04:53;11.02;;;2.38;;
37069;SDS011;22984;48.862;9.320;2023-02-01T15:07:19;16.35;;;2.72;;
37069;SDS011;22984;48.862;9.320;2023-02-01T15:09:48;10.60;;;2.45;;
37069;SDS011;22984;48.862;9.320;2023-02-01T15:12:16;9.45;;;2.30;;
37069;SDS011;22984;48.862;9.320;2023-02-01T15:15:03;13.50;;;2.53;;
37069;SDS011;22984;48.862;9.320;2023-02-01T15:17:31;16.92;;;3.70;;
37069;SDS011;22984;48.862;9.320;2023-02-01T15:20:00;14.43;;;3.13;;
37069;SDS011;22984;48.862;9.320;2023-02-01T15:22:28;9.27;;;2.53;;
37069;SDS011;22984;48.862;9.320;2023-02-01T15:24:55;14.23;;;2.55;;
37069;SDS011;22984;48.862;9.320;2023-02-01T15:27:21;12.18;;;2.50;;
37069;SDS011;22984;48.862;9.320;2023-02-01T15:29:47;9.23;;;2.30;;
37069;SDS011;22984;48.862;9.320;2023-02-01T15:32:30;12.35;;;2.35;;
37069;SDS011;22984;48.862;9.320;2023-02-01T15:34:56;11.27;;;2.22;;
37069;SDS011;22984;48.862;9.320;2023-02-01T15:37:22;10.52;;;2.00;;
37069;SDS011;22984;48.862;9.320;2023-02-01T15:42:33;8.50;;;2.03;;
37069;SDS011;22984;48.862;9.320;2023-02-01T15:44:59;10.88;;;2.95;;
37069;SDS011;22984;48.862;9.320;2023-02-01T15:47:26;8.75;;;2.67;;
37069;SDS011;22984;48.862;9.320;2023-02-01T15:49:54;15.05;;;2.80;;
37069;SDS011;22984;48.862;9.320;2023-02-01T15:52:23;12.07;;;2.53;;
37069;SDS011;22984;48.862;9.320;2023-02-01T15:54:54;9.65;;;2.50;;
37069;SDS011;22984;48.862;9.320;2023-02-01T15:57:31;17.10;;;2.10;;
37069;SDS011;22984;48.862;9.320;2023-02-01T16:00:03;13.38;;;2.15;;
37069;SDS011;22984;48.862;9.320;2023-02-01T16:02:34;8.35;;;1.90;;
37069;SDS011;22984;48.862;9.320;2023-02-01T16:05:03;9.93;;;2.83;;
37069;SDS011;22984;48.862;9.320;2023-02-01T16:07:30;8.90;;;2.30;;
37069;SDS011;22984;48.862;9.320;2023-02-01T16:09:58;8.05;;;2.05;;
37069;SDS011;22984;48.862;9.320;2023-02-01T16:14:50;9.65;;;2.85;;
37069;SDS011;22984;48.862;9.320;2023-02-01T16:17:16;11.38;;;2.17;;
37069;SDS011;22984;48.862;9.320;2023-02-01T16:19:42;12.73;;;2.63;;
37069;SDS011;22984;48.862;9.320;2023-02-01T16:22:09;13.05;;;2.33;;
37069;SDS011;22984;48.862;9.320;2023-02-01T16:24:35;8.38;;;2.00;;
37069;SDS011;22984;48.862;9.320;2023-02-01T16:27:01;14.35;;;3.13;;
37069;SDS011;22984;48.862;9.320;2023-02-01T16:29:28;13.98;;;2.20;;
37069;SDS011;22984;48.862;9.320;2023-02-01T16:31:54;10.77;;;2.33;;
37069;SDS011;22984;48.862;9.320;2023-02-01T16:34:20;10.90;;;2.40;;
37069;SDS011;22984;48.862;9.320;2023-02-01T16:36:49;12.10;;;2.00;;
37069;SDS011;22984;48.862;9.320;2023-02-01T16:39:17;10.00;;;2.47;;
37069;SDS011;22984;48.862;9.320;2023-02-01T16:41:44;10.77;;;1.83;;
37069;SDS011;22984;48.862;9.320;2023-02-01T16:44:13;11.63;;;2.58;;
37069;SDS011;22984;48.862;9.320;2023-02-01T16:46:40;13.38;;;2.45;;
37069;SDS011;22984;48.862;9.320;2023-02-01T16:49:08;12.02;;;2.25;;
37069;SDS011;22984;48.862;9.320;2023-02-01T16:51:41;10.77;;;1.85;;
37069;SDS011;22984;48.862;9.320;2023-02-01T16:54:07;7.72;;;2.38;;
37069;SDS011;22984;48.862;9.320;2023-02-01T16:56:34;10.73;;;2.53;;
37069;SDS011;22984;48.862;9.320;2023-02-01T16:59:00;13.00;;;2.97;;
37069;SDS011;22984;48.862;9.320;2023-02-01T17:01:27;13.90;;;2.35;;
37069;SDS011;22984;48.862;9.320;2023-02-01T17:03:53;10.75;;;1.98;;
37069;SDS011;22984;48.862;9.320;2023-02-01T17:06:20;12.77;;;2.60;;
37069;SDS011;22984;48.862;9.320;2023-02-01T17:08:51;7.50;;;2.50;;
37069;SDS011;22984;48.862;9.320;2023-02-01T17:11:18;10.15;;;2.40;;
37069;SDS011;22984;48.862;9.320;2023-02-01T17:13:44;8.43;;;2.42;;
37069;SDS011;22984;48.862;9.320;2023-02-01T17:18:42;11.88;;;2.67;;
37069;SDS011;22984;48.862;9.320;2023-02-01T17:21:08;10.40;;;2.25;;
37069;SDS011;22984;48.862;9.320;2023-02-01T17:23:35;13.52;;;3.00;;
37069;SDS011;22984;48.862;9.320;2023-02-01T17:26:01;11.45;;;2.45;;
37069;SDS011;22984;48.862;9.320;2023-02-01T17:28:27;18.95;;;3.00;;
37069;SDS011;22984;48.862;9.320;2023-02-01T17:30:53;9.00;;;1.88;;
37069;SDS011;22984;48.862;9.320;2023-02-01T17:35:46;8.90;;;2.37;;
37069;SDS011;22984;48.862;9.320;2023-02-01T17:38:12;12.93;;;3.83;;
37069;SDS011;22984;48.862;9.320;2023-02-01T17:40:38;12.80;;;3.65;;
37069;SDS011;22984;48.862;9.320;2023-02-01T17:43:04;19.05;;;8.90;;
37069;SDS011;22984;48.862;9.320;2023-02-01T17:48:03;12.33;;;2.93;;
37069;SDS011;22984;48.862;9.320;2023-02-01T17:50:29;11.70;;;3.42;;
37069;SDS011;22984;48.862;9.320;2023-02-01T17:52:56;10.60;;;2.88;;
37069;SDS011;22984;48.862;9.320;2023-02-01T17:55:23;10.13;;;2.67;;
37069;SDS011;22984;48.862;9.320;2023-02-01T17:57:49;9.97;;;2.47;;
37069;SDS011;22984;48.862;9.320;2023-02-01T18:00:16;9.52;;;3.08;;
37069;SDS011;22984;48.862;9.320;2023-02-01T18:02:43;12.43;;;2.40;;
37069;SDS011;22984;48.862;9.320;2023-02-01T18:05:19;16.77;;;5.03;;
37069;SDS011;22984;48.862;9.320;2023-02-01T18:07:47;10.63;;;3.22;;
37069;SDS011;22984;48.862;9.320;2023-02-01T18:10:13;17.83;;;3.20;;
37069;SDS011;22984;48.862;9.320;2023-02-01T18:12:39;11.55;;;2.40;;
37069;SDS011;22984;48.862;9.320;2023-02-01T18:15:11;9.05;;;2.20;;
37069;SDS011;22984;48.862;9.320;2023-02-01T18:17:38;9.50;;;2.35;;
37069;SDS011;22984;48.862;9.320;2023-02-01T18:20:04;14.18;;;3.20;;
37069;SDS011;22984;48.862;9.320;2023-02-01T18:22:30;10.68;;;3.22;;
37069;SDS011;22984;48.862;9.320;2023-02-01T18:24:56;8.25;;;1.75;;
37069;SDS011;22984;48.862;9.320;2023-02-01T18:27:22;9.23;;;2.23;;
37069;SDS011;22984;48.862;9.320;2023-02-01T18:29:48;13.23;;;2.80;;
37069;SDS011;22984;48.862;9.320;2023-02-01T18:32:14;11.75;;;2.38;;
37069;SDS011;22984;48.862;9.320;2023-02-01T18:34:40;13.60;;;2.20;;
37069;SDS011;22984;48.862;9.320;2023-02-01T18:37:06;11.10;;;2.80;;
37069;SDS011;22984;48.862;9.320;2023-02-01T18:39:32;9.93;;;2.67;;
37069;SDS011;22984;48.862;9.320;2023-02-01T18:41:58;16.48;;;3.17;;
37069;SDS011;22984;48.862;9.320;2023-02-01T18:44:24;13.35;;;2.75;;
37069;SDS011;22984;48.862;9.320;2023-02-01T18:46:50;11.27;;;2.60;;
37069;SDS011;22984;48.862;9.320;2023-02-01T18:49:16;11.77;;;2.70;;
37069;SDS011;22984;48.862;9.320;2023-02-01T18:51:43;13.32;;;2.92;;
37069;SDS011;22984;48.862;9.320;2023-02-01T18:54:10;13.27;;;4.07;;